Time;durP1;ratioP1;P1;durP2;ratioP2;P2;SDS_P1;SDS_P2;PMS_P1;PMS_P2;Temp;Humidity;BMP_temperature;BMP_pressure;BME280_temperature;BME280_humidity;BME280_pressure;Samples;Min_cycle;Max_cycle;Signal;HPM_P1;HPM_P2
2020/12/30 00:00:52;;;;;;;31.73;18.63;;;4.90;99.90;;;;;;5016565;28;20200;-91
2020/12/30 00:03:20;;;;;;;31.50;19.10;;;4.80;99.90;;;;;;5016463;28;20169;-90
2020/12/30 00:05:48;;;;;;;29.50;18.00;;;4.80;99.90;;;;;;5000674;28;20181;-90
2020/12/30 00:08:14;;;;;;;29.20;18.10;;;4.70;99.90;;;;;;5000913;28;20169;-91
2020/12/30 00:10:40;;;;;;;25.63;16.50;;;4.60;99.90;;;;;;4999796;28;20173;-91
2020/12/30 00:13:06;;;;;;;28.90;17.17;;;4.60;99.90;;;;;;5016467;28;20188;-91
2020/12/30 00:15:32;;;;;;;29.13;16.43;;;4.50;99.90;;;;;;5012235;28;20177;-91
2020/12/30 00:17:58;;;;;;;26.50;16.60;;;4.40;99.90;;;;;;4996891;28;20658;-90
2020/12/30 00:20:23;;;;;;;29.93;17.57;;;4.30;99.90;;;;;;4980934;28;20188;-90
2020/12/30 00:22:50;;;;;;;30.10;17.53;;;4.30;99.90;;;;;;4996256;28;20180;-90
2020/12/30 00:25:16;;;;;;;24.10;17.00;;;4.20;99.90;;;;;;4996855;28;20188;-90
2020/12/30 00:27:44;;;;;;;32.53;18.57;;;4.20;99.90;;;;;;4996549;28;20597;-90
2020/12/30 00:30:15;;;;;;;26.57;17.00;;;4.20;99.90;;;;;;5012821;28;20643;-90
2020/12/30 00:32:42;;;;;;;33.80;18.10;;;4.10;99.90;;;;;;4996660;28;20646;-91
2020/12/30 00:35:09;;;;;;;33.97;18.37;;;4.10;99.90;;;;;;5014324;28;20659;-92
2020/12/30 00:37:35;;;;;;;29.90;18.23;;;4.20;99.90;;;;;;5017626;28;20684;-91
2020/12/30 00:40:01;;;;;;;32.73;18.00;;;4.30;99.90;;;;;;5000322;28;20185;-91
2020/12/30 00:42:31;;;;;;;29.07;17.67;;;4.40;99.90;;;;;;4999403;28;20301;-91
2020/12/30 00:44:58;;;;;;;31.50;18.90;;;4.50;99.90;;;;;;4996165;28;20646;-91
2020/12/30 00:47:24;;;;;;;25.97;17.97;;;4.60;99.90;;;;;;4996515;28;20635;-91
2020/12/30 00:49:49;;;;;;;29.10;18.70;;;4.60;99.90;;;;;;4979708;28;20188;-91
2020/12/30 00:52:15;;;;;;;29.27;17.20;;;4.70;99.90;;;;;;4980888;28;20182;-92
2020/12/30 00:54:40;;;;;;;26.33;17.73;;;4.80;99.90;;;;;;4979995;28;20536;-91
2020/12/30 00:57:06;;;;;;;28.67;18.23;;;4.80;99.90;;;;;;5013995;28;20213;-91
2020/12/30 00:59:32;;;;;;;25.90;17.90;;;4.80;99.90;;;;;;4999415;28;20173;-91
2020/12/30 01:01:57;;;;;;;26.17;17.47;;;4.80;99.90;;;;;;4999610;28;20219;-90
2020/12/30 01:04:23;;;;;;;32.83;23.77;;;4.80;99.90;;;;;;5014352;28;20513;-90
2020/12/30 01:06:50;;;;;;;25.93;17.73;;;4.40;99.90;;;;;;4999295;28;20191;-90
2020/12/30 01:09:16;;;;;;;32.50;19.03;;;4.50;99.90;;;;;;5015953;28;20179;-90
2020/12/30 01:11:41;;;;;;;30.27;19.43;;;4.50;99.90;;;;;;5015473;28;20180;-91
2020/12/30 01:14:07;;;;;;;33.63;20.23;;;4.50;99.90;;;;;;4999242;28;20626;-91
2020/12/30 01:16:33;;;;;;;33.43;20.50;;;4.60;99.90;;;;;;5015307;28;20300;-90
2020/12/30 01:18:58;;;;;;;35.20;20.07;;;4.60;99.90;;;;;;5000389;28;20189;-91
2020/12/30 01:21:24;;;;;;;26.73;17.30;;;4.70;99.90;;;;;;5016028;28;20161;-90
2020/12/30 01:23:50;;;;;;;26.70;17.00;;;4.70;99.90;;;;;;5021483;28;20173;-92
2020/12/30 01:26:15;;;;;;;28.40;18.90;;;4.70;99.90;;;;;;5006157;28;20191;-92
2020/12/30 01:28:42;;;;;;;33.53;20.37;;;4.60;99.90;;;;;;5004053;28;20181;-91
2020/12/30 01:31:07;;;;;;;31.07;19.43;;;4.60;99.90;;;;;;4999159;28;20169;-91
2020/12/30 01:33:33;;;;;;;34.27;21.27;;;4.70;99.90;;;;;;4998634;28;20529;-91
2020/12/30 01:35:59;;;;;;;36.47;21.40;;;4.70;99.90;;;;;;5010103;28;20182;-91
2020/12/30 01:38:24;;;;;;;34.83;20.40;;;4.80;99.90;;;;;;4977079;28;20161;-92
2020/12/30 01:40:56;;;;;;;33.33;20.00;;;4.80;99.90;;;;;;5038634;28;20181;-92
2020/12/30 01:43:22;;;;;;;29.57;18.40;;;4.70;99.90;;;;;;5019067;28;20208;-91
2020/12/30 01:45:52;;;;;;;33.13;18.47;;;4.70;99.90;;;;;;5020929;28;20169;-91
2020/12/30 01:48:22;;;;;;;27.20;17.77;;;4.50;99.90;;;;;;4998188;28;20177;-91
2020/12/30 01:50:48;;;;;;;31.40;18.43;;;4.40;99.90;;;;;;5014342;28;20179;-91
2020/12/30 01:53:15;;;;;;;28.20;18.13;;;4.20;99.90;;;;;;4997952;28;20173;-91
2020/12/30 01:55:41;;;;;;;28.17;18.17;;;4.20;99.90;;;;;;4997919;28;20555;-91
2020/12/30 01:58:08;;;;;;;37.53;18.03;;;4.10;99.90;;;;;;5015306;28;20320;-90
2020/12/30 02:00:35;;;;;;;28.53;17.87;;;4.00;99.90;;;;;;4997846;28;20173;-91
2020/12/30 02:03:03;;;;;;;32.33;18.40;;;3.80;99.90;;;;;;5014396;28;20535;-91
2020/12/30 02:05:34;;;;;;;36.10;19.73;;;3.90;99.90;;;;;;5015084;28;20165;-91
2020/12/30 02:08:01;;;;;;;30.80;19.57;;;3.90;99.90;;;;;;5014356;28;20534;-91
2020/12/30 02:10:27;;;;;;;44.20;19.53;;;3.90;99.90;;;;;;5014009;28;20169;-89
2020/12/30 02:12:54;;;;;;;34.07;19.13;;;3.90;99.90;;;;;;4997762;28;20180;-91
2020/12/30 02:15:26;;;;;;;35.87;19.90;;;3.80;99.90;;;;;;4997336;28;20276;-91
2020/12/30 02:17:51;;;;;;;29.20;18.23;;;3.80;99.90;;;;;;4997620;28;20676;-90
2020/12/30 02:20:17;;;;;;;41.80;18.00;;;3.80;99.90;;;;;;4978052;28;20178;-91
2020/12/30 02:22:49;;;;;;;30.97;18.20;;;3.70;99.90;;;;;;4989210;28;20176;-91
2020/12/30 02:25:15;;;;;;;29.30;17.57;;;3.70;99.90;;;;;;5014830;28;20184;-91
2020/12/30 02:27:41;;;;;;;30.10;18.20;;;3.60;99.90;;;;;;4997605;28;20633;-91
2020/12/30 02:30:07;;;;;;;32.80;18.53;;;3.60;99.90;;;;;;4981273;28;20637;-91
2020/12/30 02:32:32;;;;;;;27.23;17.63;;;3.60;99.90;;;;;;4997558;28;20319;-91
2020/12/30 02:34:58;;;;;;;26.50;17.50;;;3.50;99.90;;;;;;4999207;28;20175;-92
2020/12/30 02:37:23;;;;;;;33.57;19.13;;;3.50;99.90;;;;;;5001648;28;20212;-91
2020/12/30 02:39:49;;;;;;;28.43;18.33;;;3.40;99.90;;;;;;4985288;28;20191;-91
2020/12/30 02:42:15;;;;;;;29.23;18.67;;;3.40;99.90;;;;;;4985034;28;20276;-92
2020/12/30 02:44:41;;;;;;;32.40;19.10;;;3.50;99.90;;;;;;4998680;28;20189;-91
2020/12/30 02:47:07;;;;;;;31.07;18.57;;;3.50;99.90;;;;;;4981952;28;20188;-91
2020/12/30 02:49:32;;;;;;;31.60;18.40;;;3.50;99.90;;;;;;4984484;28;20264;-92
2020/12/30 02:51:58;;;;;;;38.27;21.17;;;3.40;99.90;;;;;;5001400;28;20172;-91
2020/12/30 02:54:24;;;;;;;38.53;20.27;;;3.40;99.90;;;;;;5001192;28;20190;-91
2020/12/30 02:56:49;;;;;;;38.50;20.57;;;3.50;99.90;;;;;;5001133;28;20208;-91
2020/12/30 02:59:15;;;;;;;33.47;19.97;;;3.60;99.90;;;;;;5017704;28;20172;-91
2020/12/30 03:01:44;;;;;;;39.57;21.97;;;3.80;99.90;;;;;;5001665;28;20203;-91
2020/12/30 03:04:10;;;;;;;33.97;19.70;;;4.00;99.90;;;;;;5017950;28;20208;-91
2020/12/30 03:06:36;;;;;;;36.67;21.03;;;4.20;99.90;;;;;;5017632;28;20202;-91
2020/12/30 03:09:01;;;;;;;43.83;22.73;;;4.40;99.90;;;;;;5000816;28;20169;-91
2020/12/30 03:11:27;;;;;;;37.10;21.10;;;4.50;99.90;;;;;;5001115;28;20173;-91
2020/12/30 03:13:53;;;;;;;36.53;20.77;;;4.60;99.90;;;;;;5002072;28;20180;-91
2020/12/30 03:16:19;;;;;;;36.97;20.23;;;4.70;99.90;;;;;;5005461;28;20204;-91
2020/12/30 03:18:44;;;;;;;33.07;20.77;;;4.70;99.90;;;;;;5007102;28;20177;-91
2020/12/30 03:21:10;;;;;;;34.67;20.20;;;4.90;99.90;;;;;;5024283;28;20180;-90
2020/12/30 03:23:36;;;;;;;32.37;20.50;;;5.00;99.90;;;;;;5008480;28;20185;-92
2020/12/30 03:26:02;;;;;;;34.33;20.47;;;5.10;99.90;;;;;;5021802;28;20482;-92
2020/12/30 03:28:28;;;;;;;32.23;19.50;;;5.20;99.90;;;;;;5041177;28;20161;-90
2020/12/30 03:30:53;;;;;;;27.83;17.87;;;5.30;99.90;;;;;;5024404;28;20157;-90
2020/12/30 03:33:19;;;;;;;25.73;16.70;;;5.50;99.90;;;;;;5024376;28;20180;-92
2020/12/30 03:35:45;;;;;;;26.23;18.47;;;5.50;99.90;;;;;;5017701;28;20177;-92
2020/12/30 03:38:10;;;;;;;31.13;18.20;;;5.50;99.90;;;;;;5004014;28;20230;-91
2020/12/30 03:40:36;;;;;;;27.97;19.03;;;5.60;99.90;;;;;;5002874;28;20627;-91
2020/12/30 03:43:02;;;;;;;33.63;18.67;;;5.60;99.90;;;;;;5002027;28;20177;-91
2020/12/30 03:45:28;;;;;;;31.07;18.60;;;5.50;99.90;;;;;;5020399;28;20162;-92
2020/12/30 03:47:53;;;;;;;28.70;19.70;;;5.50;99.90;;;;;;5029868;28;20203;-92
2020/12/30 03:50:19;;;;;;;31.40;21.03;;;5.50;99.90;;;;;;5041013;28;20205;-92
2020/12/30 03:52:44;;;;;;;31.27;19.37;;;5.50;99.90;;;;;;5006689;28;20177;-91
2020/12/30 03:55:10;;;;;;;31.17;18.67;;;5.60;99.90;;;;;;5002255;28;20181;-91
2020/12/30 03:57:36;;;;;;;27.73;18.53;;;5.70;99.90;;;;;;5002279;28;20692;-91
2020/12/30 04:00:02;;;;;;;33.73;20.67;;;5.80;99.90;;;;;;5002142;28;20540;-91
2020/12/30 04:02:28;;;;;;;37.10;19.07;;;5.80;99.90;;;;;;5014324;28;20177;-90
2020/12/30 04:04:53;;;;;;;31.93;20.87;;;5.90;99.90;;;;;;5024203;28;20164;-91
2020/12/30 04:07:19;;;;;;;30.47;20.40;;;5.80;99.90;;;;;;5004722;28;20207;-91
2020/12/30 04:09:45;;;;;;;30.20;20.47;;;5.80;99.90;;;;;;5000654;28;20176;-91
2020/12/30 04:12:10;;;;;;;27.13;19.30;;;5.80;99.90;;;;;;5000238;28;20179;-90
2020/12/30 04:14:36;;;;;;;26.80;18.10;;;5.80;99.90;;;;;;5000061;28;20268;-91
2020/12/30 04:17:02;;;;;;;28.17;18.70;;;5.80;99.90;;;;;;5000199;28;20210;-91
2020/12/30 04:19:28;;;;;;;30.53;18.57;;;5.70;99.90;;;;;;4999323;28;20180;-91
2020/12/30 04:21:53;;;;;;;29.97;19.67;;;5.70;99.90;;;;;;5017617;28;20173;-91
2020/12/30 04:24:19;;;;;;;36.07;21.60;;;5.60;99.90;;;;;;4983703;28;20181;-91
2020/12/30 04:26:44;;;;;;;40.23;20.87;;;5.60;99.90;;;;;;4967401;28;20271;-91
2020/12/30 04:29:10;;;;;;;36.73;21.17;;;5.60;99.90;;;;;;4983204;28;20216;-91
2020/12/30 04:31:37;;;;;;;41.93;21.83;;;5.70;99.90;;;;;;4999361;28;20184;-91
2020/12/30 04:34:04;;;;;;;49.00;21.63;;;5.80;99.90;;;;;;5016795;28;20169;-92
2020/12/30 04:36:30;;;;;;;40.67;21.70;;;5.80;99.90;;;;;;4999444;28;20215;-91
2020/12/30 04:38:55;;;;;;;32.33;20.40;;;5.90;99.90;;;;;;4999833;28;20169;-91
2020/12/30 04:41:28;;;;;;;36.23;21.00;;;5.90;99.90;;;;;;4999354;28;20185;-91
2020/12/30 04:43:55;;;;;;;35.83;21.77;;;5.90;99.90;;;;;;5016618;28;20173;-92
2020/12/30 04:46:21;;;;;;;35.53;20.87;;;5.90;99.90;;;;;;4995713;28;20219;-91
2020/12/30 04:48:48;;;;;;;31.23;20.87;;;5.80;99.90;;;;;;4979654;28;20177;-91
2020/12/30 04:51:16;;;;;;;35.33;21.43;;;5.80;99.90;;;;;;4979694;28;20176;-92
2020/12/30 04:53:43;;;;;;;28.93;20.13;;;5.80;99.90;;;;;;4980091;28;20177;-91
2020/12/30 04:56:12;;;;;;;34.60;20.93;;;5.80;99.90;;;;;;4979738;28;20229;-91
2020/12/30 04:58:38;;;;;;;36.43;22.03;;;5.70;99.90;;;;;;4979880;28;20180;-92
2020/12/30 05:01:09;;;;;;;37.40;20.60;;;5.70;99.90;;;;;;4979408;28;20654;-91
2020/12/30 05:03:44;;;;;;;33.47;20.20;;;5.60;99.90;;;;;;4979302;28;20261;-91
2020/12/30 05:06:11;;;;;;;34.00;21.20;;;5.50;99.90;;;;;;4979295;28;20619;-91
2020/12/30 05:08:40;;;;;;;39.57;22.00;;;5.50;99.90;;;;;;4979244;28;20173;-91
2020/12/30 05:11:05;;;;;;;46.17;22.60;;;5.40;99.90;;;;;;4978947;28;20223;-92
2020/12/30 05:13:31;;;;;;;37.60;22.03;;;5.50;99.90;;;;;;4979212;28;20186;-91
2020/12/30 05:16:00;;;;;;;37.97;23.67;;;5.50;99.90;;;;;;4981013;28;20521;-90
2020/12/30 05:18:25;;;;;;;42.00;24.07;;;5.50;99.90;;;;;;4998922;28;20177;-90
2020/12/30 05:20:51;;;;;;;38.13;22.77;;;5.50;99.90;;;;;;4982650;28;20282;-91
2020/12/30 05:23:17;;;;;;;40.57;24.00;;;5.60;99.90;;;;;;4982336;28;20173;-91
2020/12/30 05:25:44;;;;;;;38.37;23.30;;;5.60;99.90;;;;;;5015759;28;20622;-91
2020/12/30 05:28:15;;;;;;;36.70;23.00;;;5.60;99.90;;;;;;4982243;28;20188;-91
2020/12/30 05:30:41;;;;;;;38.13;23.10;;;5.70;99.90;;;;;;4998617;28;20279;-91
2020/12/30 05:33:08;;;;;;;41.87;24.63;;;5.80;99.90;;;;;;4998582;28;20565;-91
2020/12/30 05:35:34;;;;;;;35.97;23.33;;;5.60;99.90;;;;;;4998223;28;20629;-91
2020/12/30 05:38:01;;;;;;;45.17;22.23;;;5.50;99.90;;;;;;4982099;28;20209;-91
2020/12/30 05:40:33;;;;;;;40.20;23.67;;;5.50;99.90;;;;;;4981993;28;20279;-91
2020/12/30 05:43:13;;;;;;;37.53;22.10;;;5.30;99.90;;;;;;4998827;28;20275;-91
2020/12/30 05:45:53;;;;;;;38.60;23.10;;;5.20;99.90;;;;;;4981617;28;20176;-91
2020/12/30 05:48:19;;;;;;;35.13;23.77;;;5.30;99.90;;;;;;4998286;28;20336;-91
2020/12/30 05:50:52;;;;;;;38.27;24.27;;;5.40;99.90;;;;;;5014179;28;20177;-91
2020/12/30 05:53:18;;;;;;;42.73;22.57;;;5.40;99.90;;;;;;4998229;28;20630;-91
2020/12/30 05:55:47;;;;;;;36.73;23.33;;;5.30;99.90;;;;;;4997979;28;20214;-91
2020/12/30 05:58:15;;;;;;;37.57;22.73;;;5.20;99.90;;;;;;5014199;28;20669;-91
2020/12/30 06:00:41;;;;;;;42.53;22.53;;;5.10;99.90;;;;;;4997736;28;20249;-91
2020/12/30 06:03:07;;;;;;;36.03;23.37;;;5.00;99.90;;;;;;5014153;28;20203;-91
2020/12/30 06:05:33;;;;;;;35.13;21.47;;;4.90;99.90;;;;;;4998246;28;20180;-91
2020/12/30 06:07:59;;;;;;;36.43;22.10;;;4.90;99.90;;;;;;5002796;28;20173;-91
2020/12/30 06:10:26;;;;;;;36.80;22.30;;;4.80;99.90;;;;;;5037736;28;20173;-92
2020/12/30 06:12:55;;;;;;;40.20;21.50;;;4.90;99.90;;;;;;5018576;28;20163;-92
2020/12/30 06:15:32;;;;;;;36.80;20.67;;;4.80;99.90;;;;;;5006076;28;20204;-91
2020/12/30 06:18:05;;;;;;;35.13;20.37;;;4.90;99.90;;;;;;4977882;28;20197;-91
2020/12/30 06:20:39;;;;;;;34.27;21.80;;;5.00;99.90;;;;;;4946735;28;20177;-91
2020/12/30 06:23:10;;;;;;;39.57;20.97;;;5.00;99.90;;;;;;4979217;28;20172;-91
2020/12/30 06:25:38;;;;;;;36.43;21.93;;;4.90;99.90;;;;;;4985515;28;20165;-91
2020/12/30 06:28:12;;;;;;;33.53;21.20;;;4.90;99.90;;;;;;5002158;28;20233;-91
2020/12/30 06:30:39;;;;;;;36.97;21.27;;;4.90;99.90;;;;;;4994423;28;20600;-92
2020/12/30 06:33:06;;;;;;;38.00;22.37;;;5.00;99.90;;;;;;4978835;28;20654;-90
2020/12/30 06:35:34;;;;;;;37.87;22.40;;;5.10;99.90;;;;;;4978218;28;20224;-92
2020/12/30 06:38:17;;;;;;;35.50;22.30;;;5.10;99.90;;;;;;4978070;28;20200;-92
2020/12/30 06:41:00;;;;;;;36.10;21.10;;;5.30;99.90;;;;;;4993803;28;20165;-91
2020/12/30 06:43:39;;;;;;;39.53;22.70;;;5.40;99.90;;;;;;4962785;28;20186;-91
2020/12/30 06:46:06;;;;;;;35.83;20.60;;;5.30;99.90;;;;;;5013482;28;20169;-91
2020/12/30 06:48:55;;;;;;;43.67;22.40;;;5.50;99.90;;;;;;4981238;28;20176;-91
2020/12/30 06:51:21;;;;;;;43.67;22.30;;;5.50;99.90;;;;;;4997305;28;20649;-91
2020/12/30 06:53:51;;;;;;;40.70;22.33;;;5.60;99.90;;;;;;5014452;28;20618;-91
2020/12/30 06:56:36;;;;;;;41.53;22.43;;;5.40;99.90;;;;;;4981199;28;20209;-91
2020/12/30 06:59:02;;;;;;;39.17;22.13;;;5.40;99.90;;;;;;4997187;28;20176;-91
2020/12/30 07:01:28;;;;;;;34.53;21.13;;;5.40;99.90;;;;;;4980898;28;20184;-91
2020/12/30 07:04:07;;;;;;;39.20;21.60;;;5.30;99.90;;;;;;4964936;28;20172;-91
2020/12/30 07:06:36;;;;;;;39.27;22.10;;;5.40;99.90;;;;;;4981248;28;20177;-91
2020/12/30 07:09:04;;;;;;;31.60;21.20;;;5.50;99.90;;;;;;4997677;28;20176;-91
2020/12/30 07:11:45;;;;;;;33.53;21.43;;;5.40;99.90;;;;;;4997620;28;20165;-91
2020/12/30 07:14:16;;;;;;;39.70;21.70;;;5.30;99.90;;;;;;5014624;28;20177;-91
2020/12/30 07:16:47;;;;;;;35.30;21.80;;;5.30;99.90;;;;;;4981020;28;20820;-91
2020/12/30 07:19:18;;;;;;;35.07;21.77;;;5.30;99.90;;;;;;5014570;28;20177;-91
2020/12/30 07:21:51;;;;;;;34.20;20.67;;;5.30;99.90;;;;;;5000044;28;20680;-91
2020/12/30 07:24:21;;;;;;;35.13;22.07;;;5.20;99.90;;;;;;5000939;28;20180;-91
2020/12/30 07:26:49;;;;;;;38.37;21.40;;;5.20;99.90;;;;;;5000630;28;20618;-91
2020/12/30 07:29:15;;;;;;;39.03;22.10;;;5.00;99.90;;;;;;5019284;28;20192;-91
2020/12/30 07:31:41;;;;;;;32.37;21.07;;;4.80;99.90;;;;;;5022053;28;20236;-90
2020/12/30 07:34:17;;;;;;;40.13;20.60;;;5.00;99.90;;;;;;5018442;28;20214;-90
2020/12/30 07:36:45;;;;;;;36.70;22.53;;;5.10;99.90;;;;;;5016899;28;20275;-91
2020/12/30 07:39:10;;;;;;;47.80;21.63;;;5.30;99.90;;;;;;5001007;28;20180;-91
2020/12/30 07:41:36;;;;;;;44.73;21.77;;;5.30;99.90;;;;;;5001691;28;20169;-91
2020/12/30 07:44:05;;;;;;;33.90;20.87;;;5.40;99.90;;;;;;5000459;28;20181;-91
2020/12/30 07:46:31;;;;;;;39.53;22.83;;;5.50;99.90;;;;;;5000916;28;20235;-90
2020/12/30 07:49:13;;;;;;;38.50;22.37;;;5.60;99.90;;;;;;5000849;28;20173;-90
2020/12/30 07:51:51;;;;;;;37.03;21.83;;;5.60;99.90;;;;;;5000558;28;20168;-91
2020/12/30 07:54:18;;;;;;;38.40;22.67;;;5.60;99.90;;;;;;5016593;28;20538;-91
2020/12/30 07:56:45;;;;;;;40.77;22.63;;;5.50;99.90;;;;;;5017555;28;20598;-90
2020/12/30 07:59:18;;;;;;;43.37;23.27;;;5.50;99.90;;;;;;5016129;28;20183;-91
2020/12/30 08:01:56;;;;;;;43.67;23.70;;;5.40;99.90;;;;;;5000461;28;20219;-91
2020/12/30 08:04:22;;;;;;;43.53;24.03;;;5.40;99.90;;;;;;5000239;28;20268;-91
2020/12/30 08:06:48;;;;;;;44.13;23.67;;;5.30;99.90;;;;;;5016289;28;20271;-91
2020/12/30 08:09:14;;;;;;;42.33;23.67;;;5.40;99.90;;;;;;5017721;28;20172;-92
2020/12/30 08:11:47;;;;;;;42.57;22.20;;;5.40;99.90;;;;;;4999771;28;20173;-91
2020/12/30 08:14:13;;;;;;;48.73;23.10;;;5.50;99.90;;;;;;4999779;28;20234;-91
2020/12/30 08:16:39;;;;;;;44.30;24.50;;;5.40;99.90;;;;;;5016998;28;20204;-92
2020/12/30 08:19:05;;;;;;;39.90;22.20;;;5.50;99.90;;;;;;4999793;28;20185;-91
2020/12/30 08:21:30;;;;;;;42.60;23.67;;;5.40;99.90;;;;;;4999910;28;20180;-90
2020/12/30 08:24:08;;;;;;;35.00;21.93;;;5.30;99.90;;;;;;4999553;28;20296;-90
2020/12/30 08:26:36;;;;;;;42.40;22.37;;;5.20;99.90;;;;;;5015772;28;20187;-90
2020/12/30 08:29:05;;;;;;;43.50;22.17;;;5.10;99.90;;;;;;4979760;28;20189;-90
2020/12/30 08:31:41;;;;;;;39.53;22.33;;;5.20;99.90;;;;;;4986719;28;20165;-90
2020/12/30 08:34:09;;;;;;;40.60;21.93;;;5.40;99.90;;;;;;5020413;28;20145;-90
2020/12/30 08:36:39;;;;;;;36.93;20.83;;;5.70;99.90;;;;;;5019103;28;20228;-91
2020/12/30 08:39:07;;;;;;;42.57;22.57;;;5.90;99.90;;;;;;5005348;28;20169;-91
2020/12/30 08:41:49;;;;;;;46.33;23.33;;;6.00;99.90;;;;;;4997070;28;20170;-90
2020/12/30 08:44:19;;;;;;;42.50;23.47;;;6.10;99.90;;;;;;4979861;28;20177;-90
2020/12/30 08:46:49;;;;;;;40.67;22.00;;;6.10;99.90;;;;;;4998506;28;20177;-90
2020/12/30 08:49:18;;;;;;;33.40;21.67;;;6.20;99.90;;;;;;4993759;28;20224;-90
2020/12/30 08:51:44;;;;;;;38.23;21.70;;;6.30;99.90;;;;;;5023087;28;20153;-91
2020/12/30 08:54:19;;;;;;;37.30;22.50;;;6.30;99.90;;;;;;5001428;28;20183;-91
2020/12/30 08:56:46;;;;;;;42.77;23.83;;;6.20;99.90;;;;;;4963976;28;20558;-91
2020/12/30 08:59:22;;;;;;;38.77;23.70;;;6.20;99.90;;;;;;5004094;28;20169;-90
2020/12/30 09:01:48;;;;;;;42.27;22.60;;;6.10;99.90;;;;;;4999042;28;20311;-90
2020/12/30 09:04:14;;;;;;;42.87;24.93;;;6.10;99.90;;;;;;5005800;28;20188;-89
2020/12/30 09:06:41;;;;;;;43.30;22.13;;;6.20;99.90;;;;;;4998415;28;20192;-90
2020/12/30 09:09:12;;;;;;;35.60;21.33;;;6.00;99.90;;;;;;4981952;28;20649;-91
2020/12/30 09:11:44;;;;;;;44.57;21.87;;;5.80;99.90;;;;;;5014863;28;20179;-90
2020/12/30 09:14:18;;;;;;;37.93;22.23;;;5.90;99.90;;;;;;4982828;28;20189;-91
2020/12/30 09:17:11;;;;;;;39.13;22.43;;;6.00;99.90;;;;;;5001854;28;20572;-90
2020/12/30 09:19:36;;;;;;;40.40;23.57;;;6.20;99.90;;;;;;4981062;28;20186;-90
2020/12/30 09:22:10;;;;;;;42.10;24.13;;;6.20;99.90;;;;;;4999086;28;20630;-90
2020/12/30 09:24:37;;;;;;;44.17;23.67;;;6.10;99.90;;;;;;4982468;28;20511;-92
2020/12/30 09:27:16;;;;;;;35.33;21.50;;;6.10;99.90;;;;;;4998962;28;20191;-90
2020/12/30 09:29:42;;;;;;;42.87;22.40;;;6.00;99.90;;;;;;4997834;28;20634;-91
2020/12/30 09:32:07;;;;;;;40.57;23.10;;;6.20;99.90;;;;;;4981701;28;20243;-90
2020/12/30 09:34:33;;;;;;;36.30;22.17;;;6.30;99.90;;;;;;4994483;28;20691;-90
2020/12/30 09:36:58;;;;;;;42.80;23.70;;;6.30;99.90;;;;;;4962601;28;20213;-91
2020/12/30 09:39:27;;;;;;;32.90;21.47;;;6.30;99.90;;;;;;4979082;28;20173;-90
2020/12/30 09:42:02;;;;;;;40.90;22.77;;;6.10;99.90;;;;;;4995662;28;20173;-91
2020/12/30 09:44:29;;;;;;;32.77;21.00;;;6.40;99.90;;;;;;4981504;28;20168;-91
2020/12/30 09:46:55;;;;;;;33.00;21.43;;;6.40;99.90;;;;;;5015210;28;20208;-90
2020/12/30 09:49:22;;;;;;;36.47;20.27;;;6.40;99.90;;;;;;4965772;28;20646;-90
2020/12/30 09:51:54;;;;;;;36.67;20.70;;;6.40;99.90;;;;;;4994513;28;20320;-91
2020/12/30 09:54:20;;;;;;;39.20;20.73;;;6.30;99.90;;;;;;4998470;28;20243;-90
2020/12/30 09:56:49;;;;;;;42.70;21.40;;;6.30;99.90;;;;;;4997992;28;20296;-90
2020/12/30 09:59:20;;;;;;;32.40;20.23;;;6.30;99.90;;;;;;4997469;28;20181;-90
2020/12/30 10:01:47;;;;;;;40.27;22.50;;;6.30;99.90;;;;;;5008262;28;20195;-90
2020/12/30 10:04:12;;;;;;;38.60;20.97;;;6.30;99.90;;;;;;5014705;28;20221;-90
2020/12/30 10:06:38;;;;;;;40.60;22.30;;;6.20;99.90;;;;;;4998038;28;20609;-89
2020/12/30 10:09:03;;;;;;;38.03;23.50;;;6.30;99.90;;;;;;5010220;28;20182;-91
2020/12/30 10:11:29;;;;;;;37.70;21.43;;;6.30;99.90;;;;;;4994721;28;20173;-90
2020/12/30 10:13:55;;;;;;;34.53;21.87;;;6.40;99.90;;;;;;4980911;28;20746;-90
2020/12/30 10:16:20;;;;;;;36.30;20.60;;;6.30;99.90;;;;;;4997512;28;20247;-90
2020/12/30 10:18:46;;;;;;;35.50;20.97;;;6.30;99.90;;;;;;4981138;28;20173;-90
2020/12/30 10:21:11;;;;;;;35.13;19.87;;;6.30;99.90;;;;;;4998304;28;20165;-92
2020/12/30 10:23:37;;;;;;;34.93;21.13;;;6.20;99.90;;;;;;4993499;28;20165;-91
2020/12/30 10:26:03;;;;;;;38.53;20.03;;;6.30;99.90;;;;;;5015905;28;20177;-92
2020/12/30 10:28:28;;;;;;;34.07;20.77;;;6.30;99.90;;;;;;4995820;28;20181;-92
2020/12/30 10:30:54;;;;;;;37.10;20.40;;;6.60;99.90;;;;;;5017341;28;20157;-91
2020/12/30 10:33:19;;;;;;;39.57;19.93;;;6.80;99.90;;;;;;5025930;28;20156;-92
2020/12/30 10:35:45;;;;;;;36.03;20.50;;;7.00;99.90;;;;;;5001812;28;20181;-90
2020/12/30 10:38:11;;;;;;;33.73;19.57;;;6.90;99.90;;;;;;4967018;28;20215;-90
2020/12/30 10:40:36;;;;;;;33.87;18.63;;;7.20;99.90;;;;;;4978879;28;20184;-90
2020/12/30 10:43:03;;;;;;;31.30;18.77;;;7.20;99.90;;;;;;4998200;28;20181;-90
2020/12/30 10:45:29;;;;;;;30.63;18.20;;;7.00;99.90;;;;;;5015792;28;20204;-91
2020/12/30 10:47:55;;;;;;;31.27;18.97;;;7.20;99.90;;;;;;4996910;28;20187;-83
2020/12/30 10:50:21;;;;;;;40.43;18.37;;;7.30;99.90;;;;;;4997769;28;20193;-83
2020/12/30 10:52:46;;;;;;;32.27;17.90;;;7.40;99.90;;;;;;4995403;28;20192;-84
2020/12/30 10:55:12;;;;;;;29.63;17.50;;;7.40;99.90;;;;;;4996540;28;20204;-83
2020/12/30 10:57:38;;;;;;;31.77;17.60;;;7.50;99.90;;;;;;5005231;28;20230;-83
2020/12/30 11:00:04;;;;;;;28.40;17.07;;;7.80;99.90;;;;;;5012904;28;20177;-84
2020/12/30 11:02:29;;;;;;;23.37;16.33;;;8.60;99.90;;;;;;5035291;28;20173;-83
2020/12/30 11:04:55;;;;;;;23.07;16.33;;;9.20;99.90;;;;;;5002492;28;20181;-82
2020/12/30 11:07:20;;;;;;;21.23;14.53;;;9.80;99.90;;;;;;5001646;28;20212;-83
2020/12/30 11:09:49;;;;;;;22.57;14.77;;;9.90;99.90;;;;;;4999415;28;20235;-83
2020/12/30 11:12:15;;;;;;;22.07;14.43;;;11.60;99.90;;;;;;4983296;28;20181;-83
2020/12/30 11:14:41;;;;;;;18.45;12.43;;;12.00;99.90;;;;;;4976320;28;20200;-84
2020/12/30 11:17:06;;;;;;;15.52;13.63;;;12.40;99.90;;;;;;5014612;28;20205;-84
2020/12/30 11:19:32;;;;;;;20.05;13.10;;;12.00;99.90;;;;;;5010807;28;20173;-84
2020/12/30 11:21:57;;;;;;;13.30;11.88;;;12.80;99.90;;;;;;5017272;28;20615;-84
2020/12/30 11:24:23;;;;;;;12.95;11.32;;;13.30;99.90;;;;;;4999356;28;20202;-83
2020/12/30 11:26:49;;;;;;;19.23;12.45;;;12.40;99.90;;;;;;5016773;28;20254;-84
2020/12/30 11:29:15;;;;;;;18.95;13.50;;;11.20;99.90;;;;;;5015203;28;20188;-83
2020/12/30 11:31:42;;;;;;;19.30;14.43;;;10.40;99.90;;;;;;4999547;28;20164;-83
2020/12/30 11:34:08;;;;;;;18.00;13.07;;;10.30;99.90;;;;;;4999190;28;20184;-83
2020/12/30 11:36:33;;;;;;;18.20;13.30;;;9.90;99.90;;;;;;5006707;28;20255;-84
2020/12/30 11:38:59;;;;;;;16.10;11.90;;;10.00;99.90;;;;;;4982993;28;20212;-84
2020/12/30 11:41:25;;;;;;;12.27;11.07;;;11.70;99.90;;;;;;4994339;28;20584;-84
2020/12/30 11:43:50;;;;;;;12.70;10.73;;;11.90;99.90;;;;;;4998660;28;20665;-83
2020/12/30 11:46:19;;;;;;;13.45;11.68;;;12.30;99.90;;;;;;4999086;28;20176;-84
2020/12/30 11:48:45;;;;;;;14.20;10.40;;;11.50;99.90;;;;;;5016285;28;20165;-84
2020/12/30 11:51:10;;;;;;;15.20;11.13;;;11.10;99.90;;;;;;5016446;28;20172;-84
2020/12/30 11:53:36;;;;;;;14.20;10.57;;;11.00;99.90;;;;;;4999120;28;20505;-84
2020/12/30 11:56:02;;;;;;;12.40;9.13;;;10.80;99.90;;;;;;5016084;28;20177;-84
2020/12/30 11:58:27;;;;;;;11.20;9.45;;;10.00;99.90;;;;;;4998627;28;20219;-84
2020/12/30 12:00:53;;;;;;;10.48;9.48;;;10.00;99.90;;;;;;4998681;28;20208;-84
2020/12/30 12:03:19;;;;;;;10.27;9.00;;;11.70;99.90;;;;;;4998556;28;20176;-84
2020/12/30 12:05:44;;;;;;;9.30;8.32;;;13.10;99.90;;;;;;4966049;28;20242;-84
2020/12/30 12:08:10;;;;;;;10.35;8.05;;;13.00;99.90;;;;;;4981471;28;20247;-84
2020/12/30 12:10:35;;;;;;;9.18;7.88;;;12.30;99.90;;;;;;4981965;28;20511;-84
2020/12/30 12:13:01;;;;;;;10.40;9.32;;;12.10;99.90;;;;;;4998121;28;20195;-75
2020/12/30 12:15:27;;;;;;;9.68;8.73;;;12.20;99.90;;;;;;5015618;28;20180;-79
2020/12/30 12:17:52;;;;;;;10.70;8.13;;;12.50;99.90;;;;;;4981946;28;20292;-80
2020/12/30 12:20:18;;;;;;;13.43;9.68;;;11.70;99.90;;;;;;4981369;28;20192;-78
2020/12/30 12:22:43;;;;;;;13.13;8.75;;;11.10;99.90;;;;;;4998065;28;20169;-78
2020/12/30 12:25:09;;;;;;;10.45;9.13;;;10.90;99.90;;;;;;4981418;28;20208;-78
2020/12/30 12:27:35;;;;;;;11.07;9.10;;;10.30;99.90;;;;;;4964923;28;20522;-78
2020/12/30 12:30:00;;;;;;;13.77;8.68;;;10.50;99.90;;;;;;4997871;28;20405;-83
2020/12/30 12:32:27;;;;;;;16.07;9.60;;;10.10;99.90;;;;;;4981916;28;20183;-84
2020/12/30 12:34:56;;;;;;;11.45;9.10;;;9.70;99.90;;;;;;4997402;28;20173;-84
2020/12/30 12:37:24;;;;;;;17.27;10.30;;;9.20;99.90;;;;;;5015686;28;20200;-84